Terminal Aerodrome Forecast
Issued by NWS Missoula, MT

Home | Current Version | Previous Version | Text Only | Print | Product List | Glossary On
Versions: 1 2 3 4 5 6 7 8 9 10 11 12 13 14 15
000
FTUS45 KMSO 201133
TAFGPI
TAF
KGPI 201133Z 2012/2112 VRB04KT 6SM BR BKN035
     FM201700 VRB03KT 4SM -SN BR OVC025
     FM202000 16007KT 5SM -RA BR OVC030
     FM210300 19008KT 5SM BR BKN030
     FM210600 18009KT 3SM BR VCFG OVC015=

USA.gov is the U.S. government's official web portal to all federal, state and local government web resources and services.